Aviation Digital Data Service (ADDS)

Output produced by METARs form (1340 UTC 24 August 2019)
found at http://www.aviationweather.gov/metar/data/
 
Forecast for: HKJK (NAIROBI/JOMO KEN, KE)
Text: TAF HKJK 240500Z 2406/2512 10010KT 9999 BKN024
Forecast period: 0600 to 2000 UTC 24 August 2019
Forecast type: FROM: standard forecast or significant change
Winds: from the E (100 degrees) at 12 MPH (10 knots; 5.1 m/s)
Visibility: 6 or more miles 10+ km)
Ceiling: 2400 feet AGL
Clouds: broken clouds at 2400 feet AGL
Weather: no significant weather forecast for this period
Text: BECMG 2420/2423 02005KT BKN016
Forecast period: 2000 UTC 24 August 2019 to 0800 UTC 25 August 2019
Forecast type: BECOMING: Conditions expected to become as follows by 2300 UTC 24 August 2019
Winds: from the NNE (20 degrees) at 6 MPH (5 knots; 2.6 m/s)
Visibility: 6 or more miles 10+ km)
Ceiling: 1600 feet AGL
Clouds: broken clouds at 1600 feet AGL
Weather: no significant weather forecast for this period
Text: BECMG 2508/2511 09010KT BKN024
Forecast period: 0800 to 1200 UTC 25 August 2019
Forecast type: BECOMING: Conditions expected to become as follows by 1100 UTC 25 August 2019
Winds: from the E (90 degrees) at 12 MPH (10 knots; 5.1 m/s)
Visibility: 6 or more miles 10+ km)
Ceiling: 2400 feet AGL
Clouds: broken clouds at 2400 feet AGL
Weather: no significant weather forecast for this period